createdAt,value
2022-11-16T00:01:55.239Z,95.90
2022-11-16T00:04:22.244Z,94.15
2022-11-16T00:06:49.801Z,94.03
2022-11-16T00:09:22.925Z,90.70
2022-11-16T00:11:51.813Z,88.78
2022-11-16T00:14:21.051Z,85.05
2022-11-16T00:16:48.010Z,92.70
2022-11-16T00:19:14.857Z,107.10
2022-11-16T00:21:42.998Z,100.22
2022-11-16T00:24:15.090Z,95.88
2022-11-16T00:26:44.582Z,97.32
2022-11-16T00:29:20.930Z,94.45
2022-11-16T00:31:49.754Z,92.53
2022-11-16T00:34:17.277Z,95.50
2022-11-16T00:36:44.709Z,89.35
2022-11-16T00:39:16.292Z,91.45
2022-11-16T00:41:46.840Z,91.05
2022-11-16T00:44:14.487Z,94.00
2022-11-16T00:46:41.967Z,95.88
2022-11-16T00:49:08.867Z,94.10
2022-11-16T00:51:36.543Z,92.88
2022-11-16T00:54:05.231Z,102.50
2022-11-16T00:56:35.018Z,98.00
2022-11-16T00:59:01.933Z,107.07
2022-11-16T01:01:29.061Z,109.38
2022-11-16T01:03:55.959Z,104.53
2022-11-16T01:06:23.621Z,103.22
2022-11-16T01:08:51.106Z,100.35
2022-11-16T01:11:36.904Z,100.35
2022-11-16T01:14:06.515Z,80.68
2022-11-16T01:16:33.863Z,84.75
2022-11-16T01:19:01.041Z,81.45
2022-11-16T01:21:28.559Z,69.70
2022-11-16T01:23:59.201Z,80.90
2022-11-16T01:26:26.378Z,80.60
2022-11-16T01:28:53.356Z,85.68
2022-11-16T01:31:21.317Z,92.50
2022-11-16T01:33:49.825Z,87.53
2022-11-16T01:36:22.202Z,87.93
2022-11-16T01:38:50.704Z,84.35
2022-11-16T01:41:24.098Z,83.63
2022-11-16T01:44:32.273Z,85.68
2022-11-16T01:47:12.430Z,74.95
2022-11-16T01:49:47.742Z,82.65
2022-11-16T01:52:22.909Z,78.15
2022-11-16T01:54:52.984Z,80.75
2022-11-16T01:57:27.958Z,82.70
2022-11-16T02:00:06.589Z,80.10
2022-11-16T02:02:57.112Z,71.88
2022-11-16T02:06:22.855Z,70.88
2022-11-16T02:09:48.166Z,64.07
2022-11-16T02:12:21.425Z,71.88
2022-11-16T02:15:04.126Z,72.47
2022-11-16T02:18:02.517Z,71.60
2022-11-16T02:20:55.086Z,65.28
2022-11-16T02:23:49.400Z,64.43
2022-11-16T02:26:56.120Z,68.53
2022-11-16T02:29:35.689Z,69.95
2022-11-16T02:32:25.396Z,72.25
2022-11-16T02:35:00.494Z,74.32
2022-11-16T02:37:33.451Z,74.13
2022-11-16T02:40:04.939Z,72.90
2022-11-16T02:42:58.293Z,69.80
2022-11-16T02:45:31.499Z,68.82
2022-11-16T02:48:08.673Z,69.80
2022-11-16T02:50:37.090Z,68.57
2022-11-16T02:53:04.256Z,69.03
2022-11-16T02:55:36.293Z,69.68
2022-11-16T02:58:09.629Z,64.55
2022-11-16T03:00:46.897Z,60.33
2022-11-16T03:03:42.365Z,65.57
2022-11-16T03:06:15.182Z,62.45
2022-11-16T03:09:05.948Z,65.00
2022-11-16T03:11:57.607Z,64.22
2022-11-16T03:14:30.938Z,64.70
2022-11-16T03:16:59.179Z,67.00
2022-11-16T03:19:36.656Z,63.55
2022-11-16T03:22:12.853Z,65.28
2022-11-16T03:24:41.094Z,63.63
2022-11-16T03:27:25.698Z,68.00
2022-11-16T03:29:58.728Z,67.32
2022-11-16T03:32:33.754Z,67.95
2022-11-16T03:35:13.100Z,67.28
2022-11-16T03:37:41.918Z,67.85
2022-11-16T03:40:12.834Z,67.35
2022-11-16T03:42:42.411Z,69.07
2022-11-16T03:45:11.281Z,70.72
2022-11-16T03:47:38.138Z,72.00
2022-11-16T03:50:06.462Z,72.82
2022-11-16T03:52:34.639Z,74.43
2022-11-16T03:55:01.786Z,74.00
2022-11-16T03:57:29.246Z,72.20
2022-11-16T03:59:59.051Z,77.85
2022-11-16T04:02:26.884Z,79.50
2022-11-16T04:05:14.961Z,79.40
2022-11-16T04:08:02.465Z,74.72
2022-11-16T04:10:48.272Z,78.25
2022-11-16T04:13:36.830Z,75.80
2022-11-16T04:16:22.387Z,75.10
2022-11-16T04:19:07.968Z,76.18
2022-11-16T04:21:59.480Z,75.28
2022-11-16T04:24:37.110Z,74.55
2022-11-16T04:27:27.209Z,76.70
2022-11-16T04:29:57.438Z,76.20
2022-11-16T04:32:43.951Z,75.63
2022-11-16T04:35:29.546Z,73.65
2022-11-16T04:37:57.866Z,76.75
2022-11-16T04:40:31.939Z,74.82
2022-11-16T04:43:03.979Z,73.82
2022-11-16T04:45:56.333Z,70.90
2022-11-16T04:48:27.235Z,64.97
2022-11-16T04:50:55.240Z,68.55
2022-11-16T04:53:27.097Z,72.05
2022-11-16T04:56:12.555Z,68.47
2022-11-16T04:58:40.751Z,69.10
2022-11-16T05:01:09.294Z,64.70
2022-11-16T05:03:36.281Z,56.28
2022-11-16T05:06:03.580Z,49.80
2022-11-16T05:08:31.116Z,49.92
2022-11-16T05:10:59.539Z,46.35
2022-11-16T05:13:28.265Z,45.05
2022-11-16T05:15:55.120Z,44.50
2022-11-16T05:18:22.824Z,45.25
2022-11-16T05:21:02.629Z,43.60
2022-11-16T05:23:55.429Z,41.30
2022-11-16T05:26:27.269Z,43.22
2022-11-16T05:28:54.973Z,45.50
2022-11-16T05:31:21.795Z,41.88
2022-11-16T05:33:49.342Z,35.83
2022-11-16T05:36:16.781Z,36.80
2022-11-16T05:38:44.089Z,38.47
2022-11-16T05:41:11.922Z,38.08
2022-11-16T05:43:39.081Z,32.58
2022-11-16T05:46:12.386Z,33.38
2022-11-16T05:48:40.705Z,29.45
2022-11-16T05:51:07.648Z,42.45
2022-11-16T05:53:35.096Z,33.40
2022-11-16T05:56:02.491Z,38.75
2022-11-16T05:58:32.793Z,40.15
2022-11-16T06:01:00.790Z,42.58
2022-11-16T06:03:31.578Z,40.78
2022-11-16T06:05:59.752Z,44.35
2022-11-16T06:08:29.027Z,44.95
2022-11-16T06:11:03.055Z,47.15
2022-11-16T06:13:31.205Z,36.83
2022-11-16T06:16:01.330Z,39.20
2022-11-16T06:18:30.010Z,41.63
2022-11-16T06:20:57.927Z,38.83
2022-11-16T06:23:25.724Z,37.53
2022-11-16T06:25:57.415Z,39.97
2022-11-16T06:28:27.602Z,41.30
2022-11-16T06:30:55.193Z,46.40
2022-11-16T06:33:30.807Z,41.15
2022-11-16T06:36:02.613Z,33.92
2022-11-16T06:38:29.632Z,34.05
2022-11-16T06:40:59.074Z,33.85
2022-11-16T06:43:28.364Z,35.65
2022-11-16T06:45:58.248Z,36.80
2022-11-16T06:48:25.696Z,37.75
2022-11-16T06:50:53.758Z,39.75
2022-11-16T06:53:27.536Z,41.50
2022-11-16T06:56:00.354Z,43.70
2022-11-16T06:58:29.654Z,43.72
2022-11-16T07:00:56.500Z,43.55
2022-11-16T07:03:23.749Z,40.92
2022-11-16T07:05:50.866Z,41.40
2022-11-16T07:08:18.766Z,39.50
2022-11-16T07:10:46.026Z,40.72
2022-11-16T07:13:13.013Z,41.80
2022-11-16T07:15:39.998Z,40.70
2022-11-16T07:18:08.486Z,39.40
2022-11-16T07:20:38.836Z,36.63
2022-11-16T07:23:07.137Z,34.78
2022-11-16T07:25:38.233Z,32.17
2022-11-16T07:28:06.408Z,30.02
2022-11-16T07:30:34.285Z,29.67
2022-11-16T07:33:07.010Z,30.30
2022-11-16T07:36:06.713Z,31.95
2022-11-16T07:38:34.120Z,33.72
2022-11-16T07:41:01.735Z,33.25
2022-11-16T07:43:37.584Z,35.67
2022-11-16T07:48:59.346Z,34.00
2022-11-16T07:51:55.329Z,35.35
2022-11-16T07:54:45.083Z,35.75
2022-11-16T07:57:12.945Z,34.55
2022-11-16T07:59:41.515Z,34.70
2022-11-16T08:02:11.080Z,34.45
2022-11-16T08:04:40.111Z,36.42
2022-11-16T08:07:08.747Z,36.83
2022-11-16T08:09:42.109Z,36.50
2022-11-16T08:12:13.350Z,36.60
2022-11-16T08:14:40.358Z,38.70
2022-11-16T08:17:08.461Z,37.55
2022-11-16T08:19:36.838Z,38.78
2022-11-16T08:22:04.021Z,40.72
2022-11-16T08:24:33.477Z,44.72
2022-11-16T08:27:00.398Z,45.28
2022-11-16T08:29:27.479Z,46.83
2022-11-16T08:31:57.261Z,50.13
2022-11-16T08:34:24.526Z,48.63
2022-11-16T08:36:56.389Z,47.45
2022-11-16T08:39:29.593Z,47.33
2022-11-16T08:41:56.727Z,47.28
2022-11-16T08:44:23.698Z,49.08
2022-11-16T08:46:53.358Z,50.30
2022-11-16T08:49:49.736Z,49.63
2022-11-16T08:52:19.007Z,51.80
2022-11-16T08:54:46.372Z,50.78
2022-11-16T08:57:13.671Z,50.72
2022-11-16T08:59:42.514Z,52.10
2022-11-16T09:02:13.128Z,49.53
2022-11-16T09:04:40.080Z,50.53
2022-11-16T09:07:06.945Z,50.00
2022-11-16T09:09:33.776Z,51.25
2022-11-16T09:12:00.646Z,48.40
2022-11-16T09:14:29.107Z,50.60
2022-11-16T09:16:56.004Z,46.58
2022-11-16T09:19:22.886Z,46.95
2022-11-16T09:21:50.495Z,40.47
2022-11-16T09:24:17.736Z,40.80
2022-11-16T09:26:44.557Z,40.65
2022-11-16T09:29:14.259Z,40.00
2022-11-16T09:31:41.933Z,35.83
2022-11-16T09:34:08.823Z,35.35
2022-11-16T09:36:35.801Z,34.85
2022-11-16T09:39:29.599Z,33.50
2022-11-16T09:44:41.845Z,31.73
2022-11-16T09:47:24.596Z,33.03
2022-11-16T09:50:03.022Z,34.92
2022-11-16T09:52:33.999Z,33.58
2022-11-16T09:55:16.851Z,34.08
2022-11-16T09:57:45.286Z,33.85
2022-11-16T10:00:18.079Z,33.30
2022-11-16T10:02:48.744Z,33.88
2022-11-16T10:05:22.631Z,33.28
2022-11-16T10:07:55.034Z,32.75
2022-11-16T10:10:34.963Z,31.88
2022-11-16T10:13:22.246Z,32.67
2022-11-16T10:16:15.483Z,29.23
2022-11-16T10:18:44.984Z,31.15
2022-11-16T10:21:11.805Z,29.92
2022-11-16T10:23:57.047Z,30.90
2022-11-16T10:26:29.715Z,30.45
2022-11-16T10:29:05.410Z,31.05
2022-11-16T10:31:51.980Z,29.40
2022-11-16T10:34:24.581Z,28.60
2022-11-16T10:36:57.870Z,27.73
2022-11-16T10:39:27.546Z,28.60
2022-11-16T10:41:59.364Z,26.23
2022-11-16T10:44:57.735Z,27.25
2022-11-16T10:47:35.898Z,27.08
2022-11-16T10:50:18.001Z,28.80
2022-11-16T10:52:44.872Z,27.20
2022-11-16T10:55:15.857Z,26.33
2022-11-16T10:58:02.006Z,24.77
2022-11-16T11:00:36.484Z,25.60
2022-11-16T11:03:03.563Z,24.38
2022-11-16T11:05:31.155Z,24.80
2022-11-16T11:08:07.412Z,24.05
2022-11-16T11:10:37.717Z,23.63
2022-11-16T11:13:10.560Z,24.77
2022-11-16T11:15:38.756Z,25.20
2022-11-16T11:18:23.595Z,24.23
2022-11-16T11:20:55.238Z,25.02
2022-11-16T11:23:25.119Z,24.25
2022-11-16T11:26:00.391Z,25.02
2022-11-16T11:28:33.723Z,23.20
2022-11-16T11:31:12.236Z,21.77
2022-11-16T11:33:48.385Z,20.00
2022-11-16T11:36:35.737Z,21.77
2022-11-16T11:39:05.648Z,22.95
2022-11-16T11:41:38.058Z,21.02
2022-11-16T11:44:14.000Z,21.42
2022-11-16T11:47:35.116Z,22.58
2022-11-16T11:49:39.959Z,19.30
2022-11-16T11:52:17.338Z,20.52
2022-11-16T11:54:49.521Z,20.63
2022-11-16T11:57:23.365Z,25.63
2022-11-16T11:59:53.110Z,25.50
2022-11-16T12:02:31.985Z,22.58
2022-11-16T12:05:23.434Z,23.42
2022-11-16T12:08:06.483Z,22.77
2022-11-16T12:10:51.140Z,26.42
2022-11-16T12:13:17.929Z,23.75
2022-11-16T12:16:12.654Z,23.50
2022-11-16T12:18:53.895Z,23.52
2022-11-16T12:21:53.373Z,22.08
2022-11-16T12:24:37.651Z,22.38
2022-11-16T12:27:29.139Z,23.50
2022-11-16T12:30:11.077Z,22.23
2022-11-16T12:33:01.804Z,22.90
2022-11-16T12:35:59.902Z,22.23
2022-11-16T12:38:35.998Z,22.90
2022-11-16T12:41:52.560Z,22.90
2022-11-16T12:44:36.683Z,24.23
2022-11-16T12:47:31.817Z,26.15
2022-11-16T12:50:31.568Z,24.02
2022-11-16T12:53:13.862Z,24.23
2022-11-16T12:55:43.948Z,24.40
2022-11-16T12:58:20.923Z,23.55
2022-11-16T13:03:38.336Z,21.48
2022-11-16T13:06:09.888Z,22.45
2022-11-16T13:08:40.881Z,21.55
2022-11-16T13:11:29.213Z,22.17
2022-11-16T13:14:00.518Z,22.35
2022-11-16T13:16:29.115Z,22.48
2022-11-16T13:18:57.449Z,23.10
2022-11-16T13:21:52.383Z,23.77
2022-11-16T13:24:38.216Z,23.98
2022-11-16T13:27:27.394Z,23.98
2022-11-16T13:30:06.504Z,23.65
2022-11-16T13:32:34.907Z,23.95
2022-11-16T13:35:05.572Z,23.95
2022-11-16T13:37:46.249Z,23.65
2022-11-16T13:40:32.153Z,24.88
2022-11-16T13:43:11.076Z,23.67
2022-11-16T13:45:49.764Z,23.90
2022-11-16T13:48:25.113Z,24.52
2022-11-16T13:50:58.603Z,24.48
2022-11-16T13:56:28.962Z,23.85
2022-11-16T13:58:58.359Z,23.67
2022-11-16T14:01:27.616Z,23.85
2022-11-16T14:04:35.523Z,24.65
2022-11-16T14:07:03.058Z,25.00
2022-11-16T14:09:59.400Z,25.05
2022-11-16T14:12:38.530Z,25.83
2022-11-16T14:15:19.199Z,27.00
2022-11-16T14:18:01.258Z,27.23
2022-11-16T14:20:30.826Z,36.78
2022-11-16T14:23:07.284Z,34.13
2022-11-16T14:25:53.119Z,33.78
2022-11-16T14:29:01.126Z,30.77
2022-11-16T14:31:49.922Z,29.95
2022-11-16T14:34:41.771Z,28.67
2022-11-16T14:37:30.091Z,29.13
2022-11-16T14:40:18.562Z,36.42
2022-11-16T14:43:15.515Z,37.53
2022-11-16T14:45:41.443Z,28.60
2022-11-16T14:48:20.096Z,32.30
2022-11-16T14:51:05.921Z,30.10
2022-11-16T14:53:37.100Z,29.73
2022-11-16T14:56:13.278Z,28.58
2022-11-16T14:58:50.061Z,28.45
2022-11-16T15:01:18.528Z,27.50
2022-11-16T15:04:09.391Z,28.75
2022-11-16T15:06:42.341Z,29.73
2022-11-16T15:09:17.373Z,36.80
2022-11-16T15:12:06.947Z,34.97
2022-11-16T15:14:39.586Z,36.38
2022-11-16T15:17:07.480Z,36.95
2022-11-16T15:19:34.497Z,35.58
2022-11-16T15:22:03.392Z,36.17
2022-11-16T15:24:33.434Z,34.88
2022-11-16T15:27:06.599Z,36.65
2022-11-16T15:29:36.165Z,39.90
2022-11-16T15:32:03.460Z,41.03
2022-11-16T15:34:31.473Z,42.55
2022-11-16T15:36:58.385Z,36.97
2022-11-16T15:39:32.535Z,38.65
2022-11-16T15:42:03.796Z,38.22
2022-11-16T15:44:33.948Z,39.08
2022-11-16T15:47:03.148Z,42.13
2022-11-16T15:49:35.812Z,41.33
2022-11-16T15:52:03.256Z,45.53
2022-11-16T15:54:51.490Z,41.13
2022-11-16T15:57:21.028Z,43.20
2022-11-16T15:59:50.645Z,46.22
2022-11-16T16:02:29.737Z,44.67
2022-11-16T16:04:56.941Z,42.38
2022-11-16T16:07:37.102Z,40.00
2022-11-16T16:10:19.292Z,42.53
2022-11-16T16:12:54.828Z,46.33
2022-11-16T16:15:26.681Z,50.03
2022-11-16T16:17:54.659Z,47.55
2022-11-16T16:20:24.703Z,56.80
2022-11-16T16:22:52.354Z,47.53
2022-11-16T16:25:34.242Z,79.13
2022-11-16T16:28:01.384Z,61.50
2022-11-16T16:30:30.540Z,63.47
2022-11-16T16:32:57.426Z,61.92
2022-11-16T16:35:25.797Z,64.28
2022-11-16T16:38:01.047Z,55.95
2022-11-16T16:40:29.238Z,72.22
2022-11-16T16:42:56.990Z,62.53
2022-11-16T16:45:36.017Z,41.92
2022-11-16T16:48:03.862Z,58.30
2022-11-16T16:50:30.782Z,49.78
2022-11-16T16:52:58.656Z,50.28
2022-11-16T16:55:26.059Z,65.30
2022-11-16T16:57:58.265Z,71.18
2022-11-16T17:00:25.466Z,61.45
2022-11-16T17:02:52.597Z,64.38
2022-11-16T17:05:20.142Z,65.03
2022-11-16T17:07:47.010Z,63.13
2022-11-16T17:10:13.918Z,62.40
2022-11-16T17:12:40.773Z,62.88
2022-11-16T17:15:08.437Z,62.53
2022-11-16T17:17:37.329Z,63.47
2022-11-16T17:20:06.178Z,60.58
2022-11-16T17:22:34.397Z,57.05
2022-11-16T17:25:01.195Z,57.17
2022-11-16T17:27:28.093Z,53.65
2022-11-16T17:29:54.885Z,54.72
2022-11-16T17:32:21.807Z,58.70
2022-11-16T17:34:48.691Z,57.03
2022-11-16T17:37:15.989Z,56.65
2022-11-16T17:39:43.081Z,56.58
2022-11-16T17:42:09.963Z,57.03
2022-11-16T17:44:36.885Z,59.15
2022-11-16T17:47:03.812Z,58.45
2022-11-16T17:49:31.123Z,54.75
2022-11-16T17:51:58.484Z,59.58
2022-11-16T17:54:25.449Z,56.83
2022-11-16T17:56:52.873Z,53.55
2022-11-16T17:59:20.625Z,59.78
2022-11-16T18:01:49.903Z,54.60
2022-11-16T18:04:16.746Z,56.17
2022-11-16T18:06:43.873Z,56.70
2022-11-16T18:09:11.241Z,55.55
2022-11-16T18:11:39.806Z,55.65
2022-11-16T18:14:06.740Z,55.75
2022-11-16T18:16:33.688Z,59.60
2022-11-16T18:19:03.315Z,55.50
2022-11-16T18:21:31.364Z,55.80
2022-11-16T18:24:01.498Z,57.75
2022-11-16T18:26:28.361Z,58.95
2022-11-16T18:28:56.065Z,61.15
2022-11-16T18:31:24.450Z,61.63
2022-11-16T18:33:52.512Z,57.85
2022-11-16T18:36:21.382Z,54.90
2022-11-16T18:38:48.675Z,46.85
2022-11-16T18:41:21.365Z,50.55
2022-11-16T18:43:51.411Z,51.38
2022-11-16T18:46:24.038Z,50.83
2022-11-16T18:48:51.858Z,66.07
2022-11-16T18:51:20.125Z,50.50
2022-11-16T18:53:47.358Z,61.50
2022-11-16T18:56:14.994Z,68.72
2022-11-16T18:58:50.486Z,64.28
2022-11-16T19:01:20.541Z,64.88
2022-11-16T19:03:48.269Z,62.58
2022-11-16T19:06:17.213Z,63.20
2022-11-16T19:08:49.071Z,65.65
2022-11-16T19:11:21.578Z,70.57
2022-11-16T19:13:53.670Z,77.03
2022-11-16T19:16:20.856Z,91.03
2022-11-16T19:18:48.057Z,87.15
2022-11-16T19:21:20.039Z,54.15
2022-11-16T19:23:52.841Z,63.50
2022-11-16T19:26:22.910Z,73.85
2022-11-16T19:28:51.091Z,56.45
2022-11-16T19:31:30.724Z,62.28
2022-11-16T19:34:02.888Z,55.17
2022-11-16T19:36:31.714Z,61.28
2022-11-16T19:38:58.777Z,54.42
2022-11-16T19:41:27.042Z,53.20
2022-11-16T19:43:59.955Z,61.67
2022-11-16T19:46:32.094Z,59.92
2022-11-16T19:48:59.610Z,63.22
2022-11-16T19:51:34.038Z,61.13
2022-11-16T19:54:02.457Z,63.65
2022-11-16T19:56:29.450Z,59.90
2022-11-16T19:58:56.718Z,75.72
2022-11-16T20:01:27.930Z,74.13
2022-11-16T20:03:58.896Z,72.28
2022-11-16T20:06:34.252Z,70.07
2022-11-16T20:09:08.841Z,73.43
2022-11-16T20:11:38.064Z,72.25
2022-11-16T20:14:07.189Z,74.18
2022-11-16T20:16:39.083Z,75.95
2022-11-16T20:19:09.100Z,74.30
2022-11-16T20:21:41.303Z,88.05
2022-11-16T20:24:12.384Z,84.88
2022-11-16T20:26:45.453Z,86.07
2022-11-16T20:29:13.944Z,83.93
2022-11-16T20:31:43.189Z,83.85
2022-11-16T20:34:16.330Z,80.80
2022-11-16T20:36:46.025Z,77.03
2022-11-16T20:39:15.370Z,77.28
2022-11-16T20:41:44.006Z,72.10
2022-11-16T20:44:16.503Z,72.25
2022-11-16T20:46:45.227Z,67.28
2022-11-16T20:49:13.028Z,65.10
2022-11-16T20:51:40.286Z,60.60
2022-11-16T20:54:07.319Z,62.00
2022-11-16T20:56:34.823Z,58.75
2022-11-16T20:59:01.889Z,61.10
2022-11-16T21:01:31.963Z,69.82
2022-11-16T21:04:01.519Z,60.10
2022-11-16T21:06:29.475Z,62.97
2022-11-16T21:08:57.365Z,63.67
2022-11-16T21:11:27.249Z,61.53
2022-11-16T21:14:13.687Z,61.45
2022-11-16T21:16:41.378Z,61.22
2022-11-16T21:19:08.380Z,59.28
2022-11-16T21:21:35.476Z,55.20
2022-11-16T21:24:02.519Z,58.50
2022-11-16T21:26:32.121Z,54.88
2022-11-16T21:29:00.517Z,51.95
2022-11-16T21:31:30.086Z,57.47
2022-11-16T21:33:58.572Z,57.08
2022-11-16T21:36:27.033Z,57.10
2022-11-16T21:38:55.047Z,61.35
2022-11-16T21:41:23.673Z,55.22
2022-11-16T21:43:51.035Z,50.38
2022-11-16T21:46:20.377Z,52.13
2022-11-16T21:48:48.324Z,50.40
2022-11-16T21:51:17.987Z,48.42
2022-11-16T21:53:45.213Z,51.53
2022-11-16T21:56:14.258Z,51.22
2022-11-16T21:58:42.082Z,52.95
2022-11-16T22:01:09.952Z,50.85
2022-11-16T22:03:37.468Z,53.00
2022-11-16T22:06:25.482Z,46.00
2022-11-16T22:08:53.404Z,52.58
2022-11-16T22:11:22.349Z,50.33
2022-11-16T22:13:50.171Z,55.70
2022-11-16T22:16:19.418Z,61.35
2022-11-16T22:18:46.260Z,62.95
2022-11-16T22:21:13.274Z,63.30
2022-11-16T22:23:40.456Z,57.90
2022-11-16T22:26:12.584Z,59.63
2022-11-16T22:28:39.782Z,50.10
2022-11-16T22:31:11.759Z,61.50
2022-11-16T22:33:39.308Z,72.68
2022-11-16T22:36:10.051Z,67.65
2022-11-16T22:38:37.306Z,55.47
2022-11-16T22:41:04.508Z,56.35
2022-11-16T22:43:31.986Z,51.55
2022-11-16T22:46:00.387Z,51.60
2022-11-16T22:48:34.918Z,45.33
2022-11-16T22:51:22.509Z,42.92
2022-11-16T22:53:54.779Z,40.17
2022-11-16T22:56:22.609Z,34.50
2022-11-16T22:58:49.688Z,35.30
2022-11-16T23:01:16.944Z,41.33
2022-11-16T23:03:43.964Z,39.03
2022-11-16T23:06:10.944Z,41.60
2022-11-16T23:08:40.046Z,40.50
2022-11-16T23:11:30.776Z,43.90
2022-11-16T23:14:16.624Z,44.30
2022-11-16T23:16:44.215Z,43.83
2022-11-16T23:19:31.805Z,45.17
2022-11-16T23:22:17.550Z,46.42
2022-11-16T23:25:03.459Z,47.58
2022-11-16T23:27:51.888Z,47.28
2022-11-16T23:30:18.907Z,47.53
2022-11-16T23:32:45.967Z,46.88
2022-11-16T23:35:13.848Z,46.65
2022-11-16T23:37:56.583Z,45.42
2022-11-16T23:40:32.319Z,41.28
2022-11-16T23:43:17.690Z,41.03
2022-11-16T23:45:51.130Z,40.67
2022-11-16T23:48:19.722Z,47.20
2022-11-16T23:50:47.048Z,45.97
2022-11-16T23:53:14.520Z,48.22
2022-11-16T23:55:41.941Z,47.72
2022-11-16T23:58:14.742Z,44.50
